Time;durP1;ratioP1;P1;durP2;ratioP2;P2;SDS_P1;SDS_P2;PMS_P1;PMS_P2;Temp;Humidity;BMP_temperature;BMP_pressure;BME280_temperature;BME280_humidity;BME280_pressure;Samples;Min_cycle;Max_cycle;Signal;HPM_P1;HPM_P2
2022/07/10 00:00:10;;;;;;;0.80;0.80;;;;;;;18.37;100.00;95050.31;5133447;28;20963;-61
2022/07/10 00:02:39;;;;;;;0.40;0.30;;;;;;;18.75;100.00;95063.66;5132558;28;20502;-61
2022/07/10 00:05:09;;;;;;;0.40;0.27;;;;;;;19.06;100.00;95067.88;5132921;28;20434;-61
2022/07/10 00:07:44;;;;;;;0.83;0.57;;;;;;;19.29;100.00;95063.72;5132726;28;20438;-61
2022/07/10 00:10:13;;;;;;;0.53;0.37;;;;;;;19.10;100.00;95061.50;5132683;27;20919;-61
2022/07/10 00:12:41;;;;;;;0.50;0.40;;;;;;;19.29;100.00;95061.84;5135285;27;20458;-61
2022/07/10 00:15:10;;;;;;;0.87;0.87;;;;;;;19.38;100.00;95049.13;5135696;27;20504;-61
2022/07/10 00:17:40;;;;;;;0.40;0.30;;;;;;;19.42;100.00;95058.13;5137035;27;20903;-61
2022/07/10 00:20:11;;;;;;;0.40;0.30;;;;;;;19.13;100.00;95001.75;5136778;27;20505;-61
2022/07/10 00:22:39;;;;;;;0.40;0.30;;;;;;;19.52;100.00;95065.75;5136668;27;21142;-61
2022/07/10 00:25:13;;;;;;;0.50;0.40;;;;;;;19.52;100.00;95060.38;5136625;27;20522;-61
2022/07/10 00:27:42;;;;;;;0.80;0.30;;;;;;;19.25;100.00;94998.34;5136533;27;20427;-61
2022/07/10 00:30:11;;;;;;;0.40;0.20;;;;;;;19.57;100.00;95051.31;5136852;27;20461;-61
2022/07/10 00:32:40;;;;;;;0.40;0.20;;;;;;;19.47;100.00;95054.44;5136360;27;20872;-61
2022/07/10 00:35:09;;;;;;;0.50;0.30;;;;;;;19.48;100.00;95053.31;5136399;27;20936;-61
2022/07/10 00:37:37;;;;;;;0.40;0.20;;;;;;;19.52;100.00;95054.22;5136174;27;20550;-61
2022/07/10 00:40:07;;;;;;;0.40;0.30;;;;;;;19.52;100.00;95054.22;5136345;27;20435;-61
2022/07/10 00:42:37;;;;;;;0.40;0.20;;;;;;;19.45;100.00;95035.94;5136436;27;21006;-60
2022/07/10 00:45:06;;;;;;;0.67;0.67;;;;;;;19.48;100.00;95047.94;5136118;27;20438;-61
2022/07/10 00:47:35;;;;;;;0.40;0.30;;;;;;;19.29;100.00;95040.34;5136222;27;20518;-61
2022/07/10 00:50:04;;;;;;;0.40;0.30;;;;;;;19.26;100.00;95041.00;5136110;27;20873;-60
2022/07/10 00:52:35;;;;;;;0.40;0.20;;;;;;;19.18;100.00;95038.38;5136094;27;20470;-60
2022/07/10 00:55:04;;;;;;;0.40;0.20;;;;;;;19.20;100.00;95038.84;5136054;27;20530;-60
2022/07/10 00:57:33;;;;;;;0.50;0.30;;;;;;;19.17;100.00;95031.44;5135852;27;20549;-60
2022/07/10 01:00:04;;;;;;;0.50;0.37;;;;;;;19.18;100.00;95036.47;5136298;27;20495;-60
2022/07/10 01:02:33;;;;;;;0.40;0.30;;;;;;;18.90;100.00;95038.91;5135933;27;20469;-60
2022/07/10 01:05:01;;;;;;;0.40;0.20;;;;;;;18.72;100.00;95032.09;5136012;27;20418;-60
2022/07/10 01:07:31;;;;;;;0.50;0.30;;;;;;;18.71;100.00;95022.50;5136086;27;20454;-59
2022/07/10 01:10:00;;;;;;;0.50;0.37;;;;;;;18.60;100.00;95023.97;5136056;27;20513;-59
2022/07/10 01:12:29;;;;;;;0.40;0.20;;;;;;;18.40;100.00;95025.50;5135873;27;20427;-59
2022/07/10 01:14:57;;;;;;;0.40;0.30;;;;;;;18.27;100.00;95021.16;5135106;27;20498;-59
2022/07/10 01:17:29;;;;;;;0.50;0.30;;;;;;;18.04;100.00;95021.75;5134431;28;20927;-60
2022/07/10 01:19:57;;;;;;;0.40;0.30;;;;;;;17.90;100.00;95024.66;5134401;28;20999;-59
2022/07/10 01:22:28;;;;;;;0.60;0.60;;;;;;;17.63;100.00;95019.72;5134070;27;20491;-59
2022/07/10 01:24:57;;;;;;;0.40;0.30;;;;;;;17.40;100.00;95013.75;5134266;28;20466;-59
2022/07/10 01:27:25;;;;;;;0.50;0.30;;;;;;;17.33;100.00;95023.41;5134622;28;20421;-59
2022/07/10 01:29:55;;;;;;;0.40;0.20;;;;;;;17.09;100.00;95002.47;5134344;28;20510;-59
2022/07/10 01:32:23;;;;;;;0.43;0.30;;;;;;;17.18;100.00;95018.53;5134256;28;20450;-58
2022/07/10 01:34:52;;;;;;;1.23;1.23;;;;;;;17.12;100.00;95023.25;5134448;28;20432;-58
2022/07/10 01:37:20;;;;;;;1.03;0.93;;;;;;;17.22;100.00;95020.25;5134163;28;20423;-58
2022/07/10 01:39:50;;;;;;;0.50;0.40;;;;;;;17.32;100.00;94995.81;5133980;28;20518;-58
2022/07/10 01:42:18;;;;;;;0.60;0.47;;;;;;;17.05;100.00;95001.53;5133991;28;21027;-57
2022/07/10 01:44:47;;;;;;;1.40;0.50;;;;;;;17.04;100.00;94999.97;5134233;28;20469;-57
2022/07/10 01:47:15;;;;;;;0.40;0.30;;;;;;;17.61;100.00;95008.50;5134264;28;20521;-56
2022/07/10 01:49:44;;;;;;;0.43;0.30;;;;;;;17.42;100.00;94997.38;5133601;28;20482;-57
2022/07/10 01:52:12;;;;;;;0.40;0.30;;;;;;;17.80;100.00;94998.22;5133505;28;20454;-57
2022/07/10 01:54:41;;;;;;;0.63;0.60;;;;;;;17.75;100.00;95003.75;5133816;28;20452;-57
2022/07/10 01:57:11;;;;;;;0.40;0.30;;;;;;;17.23;100.00;94973.59;5134140;28;20419;-56
2022/07/10 01:59:39;;;;;;;0.40;0.20;;;;;;;17.36;100.00;95002.09;5133986;28;20469;-57
2022/07/10 02:02:08;;;;;;;0.47;0.30;;;;;;;17.29;100.00;95007.16;5134057;28;20418;-56
2022/07/10 02:04:41;;;;;;;0.50;0.40;;;;;;;17.50;100.00;95001.91;5133626;28;20484;-56
2022/07/10 02:07:11;;;;;;;0.40;0.30;;;;;;;17.33;100.00;95005.41;5133935;28;20799;-57
2022/07/10 02:09:40;;;;;;;0.50;0.40;;;;;;;17.40;100.00;94970.91;5133288;28;20430;-56
2022/07/10 02:12:13;;;;;;;0.40;0.20;;;;;;;17.91;100.00;95018.16;5133375;28;21038;-56
2022/07/10 02:14:42;;;;;;;0.47;0.33;;;;;;;18.06;100.00;95014.19;5090541;27;1223067;-56
2022/07/10 02:17:11;;;;;;;0.40;0.30;;;;;;;18.05;100.00;95012.59;5134338;27;20218;-56
2022/07/10 02:19:39;;;;;;;0.50;0.30;;;;;;;17.23;100.00;95003.06;5134693;27;20525;-57
2022/07/10 02:22:08;;;;;;;0.50;0.50;;;;;;;17.10;100.00;95015.53;5134495;27;20505;-57
2022/07/10 02:24:37;;;;;;;0.40;0.20;;;;;;;16.78;100.00;95018.72;5134314;27;20414;-56
2022/07/10 02:27:05;;;;;;;0.40;0.20;;;;;;;16.94;100.00;95021.69;5134488;27;20419;-57
2022/07/10 02:29:37;;;;;;;0.40;0.27;;;;;;;17.02;100.00;95018.25;5134573;27;20419;-56
2022/07/10 02:32:06;;;;;;;0.50;0.30;;;;;;;16.95;100.00;95021.38;5134116;27;20479;-57
2022/07/10 02:34:35;;;;;;;0.40;0.30;;;;;;;17.14;100.00;95021.06;5133630;27;20466;-56
2022/07/10 02:37:04;;;;;;;0.40;0.30;;;;;;;17.44;100.00;95013.91;5134491;27;20507;-57
2022/07/10 02:39:32;;;;;;;0.50;0.30;;;;;;;17.66;100.00;95027.09;5134236;27;20466;-56
2022/07/10 02:42:00;;;;;;;0.40;0.20;;;;;;;17.72;100.00;95029.31;5133889;27;20426;-56
2022/07/10 02:44:29;;;;;;;0.67;0.60;;;;;;;17.81;100.00;95034.63;5133500;27;20969;-56
2022/07/10 02:46:59;;;;;;;0.73;0.40;;;;;;;17.63;100.00;95041.94;5133910;27;20989;-56
2022/07/10 02:49:27;;;;;;;0.60;0.40;;;;;;;17.29;100.00;95015.19;5133845;27;20434;-56
2022/07/10 02:51:56;;;;;;;0.50;0.50;;;;;;;17.60;100.00;95039.91;5134120;27;20499;-56
2022/07/10 02:54:24;;;;;;;0.47;0.30;;;;;;;17.38;100.00;95042.75;5133736;27;20479;-56
2022/07/10 02:56:52;;;;;;;0.63;0.40;;;;;;;17.18;100.00;95030.00;5133696;27;20422;-56
2022/07/10 02:59:21;;;;;;;0.50;0.30;;;;;;;16.95;100.00;95034.75;5133420;27;20497;-56
2022/07/10 03:01:49;;;;;;;0.40;0.30;;;;;;;16.66;100.00;95037.28;5133973;27;20441;-56
2022/07/10 03:04:19;;;;;;;0.40;0.20;;;;;;;16.52;100.00;95044.66;5133487;27;20431;-56
2022/07/10 03:06:47;;;;;;;0.40;0.30;;;;;;;16.31;100.00;95047.13;5132799;27;21112;-55
2022/07/10 03:09:16;;;;;;;0.63;0.60;;;;;;;16.30;100.00;95045.53;5133953;27;20562;-56
2022/07/10 03:11:44;;;;;;;0.60;0.60;;;;;;;16.45;100.00;95046.97;5133673;27;20510;-55
2022/07/10 03:14:13;;;;;;;0.50;0.37;;;;;;;16.64;100.00;95057.44;5133145;27;20517;-56
2022/07/10 03:16:41;;;;;;;0.40;0.20;;;;;;;16.74;100.00;95054.44;5133553;27;20491;-54
2022/07/10 03:19:10;;;;;;;0.40;0.30;;;;;;;16.94;100.00;95051.16;5133627;27;20478;-54
2022/07/10 03:21:40;;;;;;;0.40;0.20;;;;;;;17.12;100.00;95055.41;5133257;27;20502;-54
2022/07/10 03:24:08;;;;;;;0.50;0.47;;;;;;;16.84;100.00;95052.25;5133023;27;20422;-54
2022/07/10 03:26:36;;;;;;;0.40;0.30;;;;;;;16.68;100.00;95058.38;5133238;27;20497;-54
2022/07/10 03:29:05;;;;;;;0.70;0.70;;;;;;;16.26;100.00;95059.84;5133057;27;20463;-54
2022/07/10 03:31:33;;;;;;;0.50;0.30;;;;;;;16.49;100.00;95054.06;5132775;27;20828;-54
2022/07/10 03:34:03;;;;;;;0.50;0.37;;;;;;;16.55;100.00;95059.28;5132983;27;20576;-55
2022/07/10 03:36:31;;;;;;;1.13;0.40;;;;;;;16.78;100.00;95029.41;5133054;27;20495;-55
2022/07/10 03:39:01;;;;;;;0.40;0.30;;;;;;;17.36;100.00;95060.25;5133006;27;20696;-55
2022/07/10 03:41:30;;;;;;;0.50;0.40;;;;;;;17.52;100.00;95054.09;5133093;27;20798;-55
2022/07/10 03:43:58;;;;;;;0.60;0.40;;;;;;;17.17;100.00;95057.91;5133053;27;20457;-55
2022/07/10 03:46:26;;;;;;;0.43;0.30;;;;;;;16.44;100.00;95053.44;5132915;27;20429;-55
2022/07/10 03:48:55;;;;;;;0.50;0.40;;;;;;;15.99;100.00;95044.78;5133086;27;20425;-55
2022/07/10 03:51:23;;;;;;;0.60;0.47;;;;;;;16.19;100.00;95048.81;5132888;27;20457;-55
2022/07/10 03:53:52;;;;;;;2.57;0.70;;;;;;;16.19;100.00;95044.22;5132951;27;20505;-54
2022/07/10 03:59:07;;;;;;;0.83;0.83;;;;;;;16.38;100.00;95033.28;5130650;28;20545;-54
2022/07/10 04:01:36;;;;;;;0.57;0.30;;;;;;;17.07;100.00;95032.25;5132164;28;20474;-55
2022/07/10 04:04:05;;;;;;;0.50;0.30;;;;;;;17.43;100.00;95034.53;5132570;28;20930;-55
2022/07/10 04:06:33;;;;;;;0.40;0.20;;;;;;;17.60;100.00;95029.19;5132449;28;20425;-55
2022/07/10 04:09:01;;;;;;;0.40;0.20;;;;;;;17.71;100.00;95030.41;5132492;28;20422;-55
2022/07/10 04:11:31;;;;;;;1.00;0.40;;;;;;;17.87;100.00;95030.66;5132873;28;20466;-55
2022/07/10 04:14:00;;;;;;;0.50;0.40;;;;;;;18.00;100.00;95032.34;5131727;28;20518;-55
2022/07/10 04:16:28;;;;;;;0.40;0.20;;;;;;;18.11;100.00;95022.03;5132427;28;21097;-55
2022/07/10 04:18:56;;;;;;;0.40;0.20;;;;;;;18.12;100.00;95019.03;5132505;28;20509;-56
2022/07/10 04:21:25;;;;;;;0.50;0.30;;;;;;;18.04;100.00;95021.75;5132513;28;20415;-56
2022/07/10 04:23:54;;;;;;;1.37;0.50;;;;;;;18.32;100.00;95015.59;5131994;28;20533;-55
2022/07/10 04:26:22;;;;;;;0.50;0.30;;;;;;;18.42;100.00;95027.84;5132598;28;20509;-55
2022/07/10 04:28:52;;;;;;;0.40;0.30;;;;;;;18.29;100.00;95020.84;5132280;28;20505;-55
2022/07/10 04:31:21;;;;;;;0.40;0.20;;;;;;;18.54;100.00;95024.50;5132397;28;20462;-55
2022/07/10 04:33:49;;;;;;;0.40;0.20;;;;;;;18.58;100.00;95028.09;5132225;28;20427;-56
2022/07/10 04:36:18;;;;;;;0.50;0.30;;;;;;;18.60;100.00;95025.88;5132291;28;20418;-56
2022/07/10 04:38:46;;;;;;;0.50;0.30;;;;;;;18.73;100.00;95030.22;5132211;28;20473;-55
2022/07/10 04:41:14;;;;;;;0.60;0.50;;;;;;;18.82;100.00;95026.34;5132157;28;21028;-57
2022/07/10 04:43:43;;;;;;;0.97;0.97;;;;;;;18.91;100.00;95034.34;5132211;28;20520;-57
2022/07/10 04:46:13;;;;;;;0.40;0.40;;;;;;;19.02;100.00;95038.22;5132181;28;20556;-57
2022/07/10 04:48:41;;;;;;;0.40;0.20;;;;;;;19.13;100.00;95033.19;5132331;28;20436;-57
2022/07/10 04:51:10;;;;;;;0.40;0.40;;;;;;;19.18;100.00;95031.09;5132172;28;20979;-57
2022/07/10 04:53:38;;;;;;;0.50;0.40;;;;;;;19.25;100.00;95035.97;5132136;28;20466;-57
2022/07/10 04:56:07;;;;;;;0.60;0.57;;;;;;;19.07;100.00;95027.28;5132059;27;20479;-57
2022/07/10 04:58:35;;;;;;;0.40;0.33;;;;;;;18.95;100.00;95025.28;5135463;27;20458;-57
2022/07/10 05:01:04;;;;;;;0.83;0.50;;;;;;;19.18;100.00;95016.88;5136355;27;20462;-58
2022/07/10 05:03:34;;;;;;;0.40;0.20;;;;;;;18.94;100.00;95022.94;5135742;27;20526;-58
2022/07/10 05:06:03;;;;;;;0.40;0.23;;;;;;;19.12;100.00;95026.28;5135987;27;20480;-58
2022/07/10 05:08:31;;;;;;;0.40;0.20;;;;;;;19.25;100.00;95023.28;5135847;27;20423;-58
2022/07/10 05:10:59;;;;;;;0.60;0.30;;;;;;;19.25;100.00;95019.84;5135346;27;20934;-58
2022/07/10 05:13:28;;;;;;;0.50;0.30;;;;;;;19.63;100.00;95015.06;5135837;27;20476;-58
2022/07/10 05:15:56;;;;;;;0.50;0.37;;;;;;;19.78;100.00;95017.09;5135567;27;20508;-58
2022/07/10 05:18:25;;;;;;;0.57;0.50;;;;;;;19.41;100.00;95016.22;5135017;27;20513;-58
2022/07/10 05:20:55;;;;;;;0.60;0.30;;;;;;;19.90;100.00;95014.41;5135713;27;21081;-58
2022/07/10 05:23:23;;;;;;;0.40;0.30;;;;;;;19.91;100.00;95012.50;5135310;27;20466;-59
2022/07/10 05:25:52;;;;;;;0.70;0.70;;;;;;;20.06;100.00;95023.38;5135596;27;20503;-59
2022/07/10 05:28:20;;;;;;;0.40;0.30;;;;;;;20.38;100.00;95015.56;5135580;27;20536;-59
2022/07/10 05:30:49;;;;;;;2.47;0.40;;;;;;;20.60;100.00;95026.63;5135632;27;20486;-59
2022/07/10 05:33:17;;;;;;;0.50;0.40;;;;;;;20.19;100.00;95016.09;5135153;27;20484;-59
2022/07/10 05:35:46;;;;;;;2.70;0.93;;;;;;;20.42;100.00;95014.53;5135122;27;20468;-58
2022/07/10 05:38:17;;;;;;;0.40;0.33;;;;;;;20.76;100.00;95015.97;5135033;27;20430;-58
2022/07/10 05:40:45;;;;;;;0.50;0.30;;;;;;;20.67;100.00;95009.94;5134992;27;20497;-58
2022/07/10 05:43:14;;;;;;;0.50;0.40;;;;;;;20.92;100.00;95010.63;5135317;27;20513;-58
2022/07/10 05:45:42;;;;;;;3.03;0.43;;;;;;;20.59;100.00;95016.97;5134910;27;20460;-58
2022/07/10 05:48:17;;;;;;;0.70;0.40;;;;;;;19.87;100.00;95020.47;5134755;27;20425;-58
2022/07/10 05:50:45;;;;;;;0.50;0.50;;;;;;;19.82;100.00;95020.69;5135132;27;20843;-58
2022/07/10 05:53:15;;;;;;;0.50;0.40;;;;;;;20.54;100.00;95024.53;5134784;27;20460;-58
2022/07/10 05:55:43;;;;;;;0.50;0.50;;;;;;;20.67;100.00;95007.22;5135056;27;20462;-58
2022/07/10 05:58:12;;;;;;;0.50;0.40;;;;;;;20.94;100.00;95016.47;5134663;27;20903;-57
2022/07/10 06:00:42;;;;;;;0.50;0.40;;;;;;;21.03;100.00;95025.97;5134503;27;20502;-57
2022/07/10 06:03:11;;;;;;;0.67;0.67;;;;;;;20.68;100.00;95023.03;5134648;27;20509;-58
2022/07/10 06:05:40;;;;;;;1.63;1.37;;;;;;;21.14;100.00;95016.31;5134457;27;20514;-57
2022/07/10 06:08:08;;;;;;;1.27;0.57;;;;;;;21.35;100.00;95014.19;5133792;27;20432;-57
2022/07/10 06:10:40;;;;;;;0.53;0.33;;;;;;;21.38;100.00;95018.91;5133745;27;20470;-58
2022/07/10 06:13:08;;;;;;;0.63;0.60;;;;;;;21.29;100.00;95012.88;5134514;27;20515;-59
2022/07/10 06:15:37;;;;;;;0.40;0.30;;;;;;;22.00;100.00;95006.66;5134491;27;20517;-57
2022/07/10 06:18:06;;;;;;;0.40;0.30;;;;;;;22.64;100.00;95006.25;5134395;27;20950;-57
2022/07/10 06:20:35;;;;;;;0.50;0.40;;;;;;;22.56;100.00;94999.09;5134045;27;20462;-58
2022/07/10 06:23:04;;;;;;;0.40;0.30;;;;;;;22.51;97.07;94993.97;5134306;27;21107;-57
2022/07/10 06:25:33;;;;;;;0.60;0.43;;;;;;;22.46;96.94;94995.03;5134109;27;20440;-57
2022/07/10 06:28:03;;;;;;;0.40;0.30;;;;;;;22.82;96.42;94985.78;5133604;27;20426;-58
2022/07/10 06:30:32;;;;;;;2.00;0.70;;;;;;;22.83;100.00;94986.56;5133995;27;20462;-58
2022/07/10 06:33:00;;;;;;;0.50;0.30;;;;;;;23.49;99.29;94981.75;5134240;27;20814;-58
2022/07/10 06:35:29;;;;;;;0.50;0.33;;;;;;;22.70;100.00;94977.81;5133915;27;20427;-59
2022/07/10 06:37:57;;;;;;;0.50;0.47;;;;;;;22.57;100.00;94982.53;5134074;27;20442;-58
2022/07/10 06:40:27;;;;;;;0.60;0.60;;;;;;;23.22;99.92;94986.25;5133557;27;20523;-58
2022/07/10 06:42:55;;;;;;;1.33;0.40;;;;;;;23.76;100.00;94985.31;5132668;27;20426;-58
2022/07/10 06:45:25;;;;;;;0.50;0.30;;;;;;;23.73;90.77;94980.63;5132808;27;20511;-58
2022/07/10 06:47:57;;;;;;;0.43;0.40;;;;;;;23.57;88.40;94966.41;5131646;27;20446;-59
2022/07/10 06:50:29;;;;;;;0.40;0.40;;;;;;;24.28;84.86;94965.69;5133335;27;20430;-58
2022/07/10 06:52:58;;;;;;;0.60;0.50;;;;;;;24.33;85.75;94933.66;5132100;27;20426;-59
2022/07/10 06:55:28;;;;;;;0.50;0.30;;;;;;;24.33;92.06;94965.38;5131281;27;20990;-59
2022/07/10 06:57:56;;;;;;;0.40;0.30;;;;;;;24.18;96.61;94963.59;5131378;27;20455;-59
2022/07/10 07:00:27;;;;;;;0.50;0.40;;;;;;;24.45;92.83;94960.53;5132441;27;20502;-59
2022/07/10 07:02:55;;;;;;;0.50;0.40;;;;;;;24.07;90.38;94952.56;5132262;27;20518;-58
2022/07/10 07:05:24;;;;;;;0.47;0.33;;;;;;;24.57;88.18;94960.31;5132251;27;20858;-57
2022/07/10 07:07:52;;;;;;;1.20;0.40;;;;;;;24.27;88.72;94927.00;5132838;27;20459;-57
2022/07/10 07:10:21;;;;;;;0.40;0.30;;;;;;;24.26;90.67;94921.94;5133147;27;20506;-56
2022/07/10 07:12:49;;;;;;;0.57;0.57;;;;;;;23.80;95.34;94949.06;5132940;27;20411;-56
2022/07/10 07:15:20;;;;;;;0.50;0.40;;;;;;;24.07;90.49;94951.78;5132769;27;20505;-56
2022/07/10 07:18:07;;;;;;;0.57;0.40;;;;;;;24.53;88.60;94907.22;5133056;27;20461;-57
2022/07/10 07:23:23;;;;;;;0.50;0.40;;;;;;;26.20;78.01;94941.19;5133042;27;20419;-57
2022/07/10 07:25:52;;;;;;;0.40;0.30;;;;;;;26.61;66.89;94927.47;5133415;27;20433;-57
2022/07/10 07:28:21;;;;;;;0.60;0.50;;;;;;;25.81;77.98;94923.78;5132967;27;20522;-57
2022/07/10 07:30:50;;;;;;;0.40;0.30;;;;;;;26.26;78.56;94939.66;5132936;27;20510;-57
2022/07/10 07:33:20;;;;;;;0.77;0.77;;;;;;;25.76;76.06;94943.91;5133161;27;20419;-57
2022/07/10 07:35:48;;;;;;;0.70;0.70;;;;;;;25.54;76.70;94947.59;5133060;27;20896;-58
2022/07/10 07:38:17;;;;;;;0.40;0.30;;;;;;;26.12;73.04;94919.78;5133160;27;20487;-59
2022/07/10 07:40:45;;;;;;;0.50;0.40;;;;;;;26.23;73.48;94940.44;5133057;27;20456;-58
2022/07/10 07:43:14;;;;;;;0.70;0.60;;;;;;;26.71;67.95;94935.69;5132769;27;20903;-59
2022/07/10 07:45:42;;;;;;;0.63;0.40;;;;;;;27.07;68.02;94939.34;5132825;27;20483;-60
2022/07/10 07:48:11;;;;;;;0.50;0.50;;;;;;;26.62;65.90;94932.53;5133032;27;20438;-60
2022/07/10 07:50:41;;;;;;;0.60;0.60;;;;;;;25.94;71.43;94910.69;5132940;27;20543;-60
2022/07/10 07:53:09;;;;;;;0.43;0.37;;;;;;;26.65;72.47;94922.81;5132742;27;20973;-60
2022/07/10 07:55:38;;;;;;;0.47;0.30;;;;;;;27.19;66.41;94922.72;5132870;27;20501;-60
2022/07/10 07:58:07;;;;;;;0.40;0.37;;;;;;;27.62;59.72;94921.66;5132591;27;20936;-60
2022/07/10 08:00:35;;;;;;;0.40;0.30;;;;;;;28.14;58.32;94928.31;5132693;28;20453;-61
2022/07/10 08:03:04;;;;;;;0.40;0.30;;;;;;;27.95;59.25;94928.69;5132517;28;20483;-60
2022/07/10 08:05:33;;;;;;;0.40;0.30;;;;;;;28.22;56.21;94934.53;5132655;28;20454;-62
2022/07/10 08:08:08;;;;;;;0.40;0.40;;;;;;;27.87;62.50;94929.06;5132549;28;20454;-61
2022/07/10 08:10:37;;;;;;;0.53;0.40;;;;;;;26.93;64.93;94936.59;5132575;28;20972;-61
2022/07/10 08:13:13;;;;;;;0.40;0.33;;;;;;;26.75;64.89;94900.34;5132919;28;20428;-60
2022/07/10 08:15:41;;;;;;;0.80;0.60;;;;;;;27.43;63.52;94929.38;5132196;28;21042;-60
2022/07/10 08:18:09;;;;;;;0.50;0.40;;;;;;;27.37;57.66;94922.75;5132398;28;20422;-61
2022/07/10 08:20:38;;;;;;;0.40;0.40;;;;;;;28.35;63.07;94919.34;5132338;28;20446;-61
2022/07/10 08:23:08;;;;;;;1.30;0.40;;;;;;;28.23;58.43;94917.78;5132175;28;20505;-61
2022/07/10 08:25:36;;;;;;;0.43;0.40;;;;;;;27.22;67.23;94919.22;5132251;28;21101;-61
2022/07/10 08:28:06;;;;;;;0.50;0.33;;;;;;;27.68;62.06;94920.09;5132235;28;20856;-61
2022/07/10 08:30:35;;;;;;;0.60;0.60;;;;;;;27.96;56.09;94916.63;5132415;28;20843;-61
2022/07/10 08:33:03;;;;;;;4.83;0.30;;;;;;;28.21;56.99;94919.34;5135426;27;20419;-61
2022/07/10 08:35:32;;;;;;;0.50;0.50;;;;;;;27.88;53.21;94934.13;5136169;27;20786;-61
2022/07/10 08:38:01;;;;;;;0.70;0.70;;;;;;;28.54;57.16;94931.78;5136478;27;20505;-61
2022/07/10 08:40:36;;;;;;;0.50;0.40;;;;;;;28.13;53.13;94926.00;5136120;27;20470;-61
2022/07/10 08:43:04;;;;;;;0.50;0.50;;;;;;;28.46;53.58;94922.84;5135542;27;20497;-61
2022/07/10 08:45:34;;;;;;;1.10;0.87;;;;;;;28.34;54.49;94926.75;5136016;27;20497;-61
2022/07/10 08:48:05;;;;;;;0.87;0.87;;;;;;;28.00;55.98;94898.34;5136389;27;20509;-61
2022/07/10 08:50:38;;;;;;;2.50;0.40;;;;;;;28.56;57.84;94927.50;5136307;27;20842;-61
2022/07/10 08:53:11;;;;;;;0.43;0.37;;;;;;;28.21;57.57;94927.53;5135803;27;20457;-61
2022/07/10 08:55:41;;;;;;;0.60;0.50;;;;;;;28.05;57.26;94927.16;5136275;27;20458;-60
2022/07/10 08:58:16;;;;;;;0.50;0.33;;;;;;;28.99;55.90;94921.94;5136131;27;20464;-62
2022/07/10 09:00:45;;;;;;;8.73;0.60;;;;;;;29.16;52.49;94918.34;5136152;27;20422;-61
2022/07/10 09:03:13;;;;;;;0.67;0.67;;;;;;;29.34;49.25;94916.34;5136094;27;20500;-60
2022/07/10 09:05:42;;;;;;;0.57;0.57;;;;;;;30.00;50.75;94912.41;5136175;27;20429;-61
2022/07/10 09:08:23;;;;;;;0.63;0.63;;;;;;;28.63;47.62;94837.50;5135732;27;20434;-61
2022/07/10 09:10:53;;;;;;;0.40;0.30;;;;;;;29.71;49.69;94908.28;5135699;27;20849;-60
2022/07/10 09:13:24;;;;;;;0.70;0.63;;;;;;;30.00;45.83;94909.66;5135626;27;20492;-61
2022/07/10 09:15:53;;;;;;;0.40;0.40;;;;;;;30.89;45.09;94917.78;5135420;27;20454;-60
2022/07/10 09:18:25;;;;;;;0.40;0.30;;;;;;;31.06;44.10;94902.38;5135544;27;20465;-60
2022/07/10 09:20:54;;;;;;;0.40;0.30;;;;;;;30.61;45.47;94910.66;5135625;27;20908;-60
2022/07/10 09:23:25;;;;;;;0.50;0.50;;;;;;;29.99;45.74;94901.84;5135192;27;20594;-60
2022/07/10 09:25:55;;;;;;;0.60;0.50;;;;;;;30.32;47.47;94914.06;5135673;27;20485;-60
2022/07/10 09:28:24;;;;;;;0.60;0.40;;;;;;;31.08;42.74;94861.66;5135394;27;20511;-60
2022/07/10 09:30:53;;;;;;;0.40;0.30;;;;;;;30.84;43.01;94899.06;5135366;27;20506;-60
2022/07/10 09:33:26;;;;;;;0.40;0.40;;;;;;;31.32;41.60;94896.19;5135588;27;20423;-60
2022/07/10 09:36:09;;;;;;;0.47;0.30;;;;;;;31.94;38.90;94893.69;5135377;27;20889;-60
2022/07/10 09:39:00;;;;;;;0.50;0.40;;;;;;;31.69;39.03;94890.56;5135212;27;20440;-60
2022/07/10 09:41:31;;;;;;;0.67;0.40;;;;;;;30.99;39.87;94853.19;5135158;27;20421;-60
2022/07/10 09:44:01;;;;;;;0.40;0.30;;;;;;;30.59;40.03;94854.81;5134736;27;20898;-60
2022/07/10 09:46:33;;;;;;;0.40;0.30;;;;;;;31.43;39.04;94896.78;5135078;27;20425;-60
2022/07/10 09:49:07;;;;;;;0.60;0.50;;;;;;;30.95;41.60;94778.56;5135374;27;20422;-60
2022/07/10 09:51:37;;;;;;;0.47;0.43;;;;;;;31.11;39.50;94886.28;5135014;27;20428;-60
2022/07/10 09:54:14;;;;;;;0.50;0.50;;;;;;;31.17;38.96;94884.63;5135270;27;20485;-60
2022/07/10 09:56:46;;;;;;;0.40;0.30;;;;;;;31.81;38.60;94879.03;5135307;27;20421;-58
2022/07/10 09:59:16;;;;;;;0.43;0.40;;;;;;;31.86;37.87;94883.25;5134858;27;20794;-58
2022/07/10 10:01:46;;;;;;;0.40;0.30;;;;;;;32.55;39.18;94830.38;5134746;27;20469;-59
2022/07/10 10:04:16;;;;;;;0.67;0.50;;;;;;;32.23;37.17;94865.84;5134660;27;20465;-58
2022/07/10 10:06:47;;;;;;;0.40;0.30;;;;;;;33.03;35.97;94866.28;5134609;27;20970;-59
2022/07/10 10:09:23;;;;;;;0.67;0.57;;;;;;;32.08;34.89;94873.50;5134553;27;20416;-58
2022/07/10 10:11:59;;;;;;;0.40;0.30;;;;;;;31.44;37.82;94879.19;5134374;27;20435;-59
2022/07/10 10:14:29;;;;;;;0.40;0.37;;;;;;;31.89;38.07;94882.44;5134196;27;20994;-59
2022/07/10 10:17:00;;;;;;;0.50;0.40;;;;;;;32.16;36.86;94874.16;5134420;27;20463;-59
2022/07/10 10:22:19;;;;;;;0.40;0.30;;;;;;;31.60;36.26;94873.88;5133990;27;20556;-60
2022/07/10 10:24:50;;;;;;;0.60;0.50;;;;;;;31.64;37.06;94862.88;5134466;27;20429;-60
2022/07/10 10:27:22;;;;;;;0.33;0.30;;;;;;;31.05;36.15;94866.00;5133216;27;20431;-59
2022/07/10 10:29:51;;;;;;;0.30;0.30;;;;;;;29.93;37.60;94870.69;5134395;27;20461;-59
2022/07/10 10:32:20;;;;;;;0.40;0.30;;;;;;;29.94;42.21;94869.50;5134143;27;20921;-59
2022/07/10 10:34:55;;;;;;;0.40;0.30;;;;;;;30.41;41.46;94879.63;5134325;27;20909;-59
2022/07/10 10:37:36;;;;;;;2.63;0.50;;;;;;;29.12;38.13;94876.66;5134397;27;20427;-59
2022/07/10 10:40:06;;;;;;;0.47;0.30;;;;;;;28.85;39.19;94885.34;5134241;27;20430;-59
2022/07/10 10:42:38;;;;;;;0.70;0.70;;;;;;;28.42;40.64;94886.63;5133768;27;20889;-59
2022/07/10 10:45:27;;;;;;;0.50;0.37;;;;;;;28.74;41.07;94878.38;5133420;27;20517;-59
2022/07/10 10:47:59;;;;;;;0.40;0.30;;;;;;;28.36;42.88;94839.09;5134033;27;20472;-59
2022/07/10 10:50:49;;;;;;;0.40;0.30;;;;;;;28.46;44.55;94892.06;5133776;27;20526;-57
2022/07/10 10:53:21;;;;;;;0.40;0.30;;;;;;;27.89;44.45;94825.94;5133616;27;20426;-57
2022/07/10 10:56:26;;;;;;;0.63;0.63;;;;;;;28.28;44.49;94889.38;5132890;27;20916;-57
2022/07/10 10:58:56;;;;;;;0.40;0.30;;;;;;;27.90;44.43;94887.44;5133626;27;20466;-56
2022/07/10 11:01:30;;;;;;;0.40;0.30;;;;;;;27.64;46.71;94892.09;5133704;27;20426;-56
2022/07/10 11:04:17;;;;;;;0.47;0.47;;;;;;;27.47;47.17;94898.31;5133595;27;20825;-56
2022/07/10 11:06:49;;;;;;;0.90;0.70;;;;;;;27.45;52.09;94903.34;5133736;27;20415;-56
2022/07/10 11:09:25;;;;;;;0.60;0.60;;;;;;;27.62;53.56;94905.34;5133345;27;20438;-56
2022/07/10 11:12:01;;;;;;;0.40;0.30;;;;;;;27.99;51.87;94910.38;5133512;27;20426;-55
2022/07/10 11:14:31;;;;;;;0.43;0.37;;;;;;;27.76;54.39;94920.09;5133049;27;20523;-55
2022/07/10 11:17:00;;;;;;;0.43;0.40;;;;;;;26.97;59.83;94921.06;5133323;27;20473;-55
2022/07/10 11:19:30;;;;;;;0.63;0.60;;;;;;;26.52;62.16;94843.53;5133286;27;20908;-55
2022/07/10 11:22:22;;;;;;;0.73;0.50;;;;;;;25.95;74.10;94926.63;5133241;27;20955;-56
2022/07/10 11:25:00;;;;;;;0.50;0.40;;;;;;;24.77;85.64;94924.97;5132724;27;20855;-56
2022/07/10 11:27:50;;;;;;;0.80;0.80;;;;;;;24.62;100.00;94921.28;5132715;27;20423;-56
2022/07/10 11:30:20;;;;;;;0.50;0.33;;;;;;;24.49;100.00;94936.97;5132858;27;20751;-56
2022/07/10 11:32:50;;;;;;;1.10;0.53;;;;;;;24.08;100.00;94945.28;5132495;27;20431;-57
2022/07/10 11:35:20;;;;;;;0.70;0.70;;;;;;;23.55;100.00;94930.84;5132594;27;20851;-57
2022/07/10 11:37:52;;;;;;;0.93;0.77;;;;;;;22.79;100.00;94831.72;5132489;27;20807;-57
2022/07/10 11:40:21;;;;;;;0.73;0.50;;;;;;;23.87;100.00;94938.34;5133365;27;20476;-57
2022/07/10 11:42:51;;;;;;;0.57;0.57;;;;;;;23.32;100.00;94887.53;5133201;27;20435;-58
2022/07/10 11:45:39;;;;;;;0.53;0.53;;;;;;;24.47;100.00;94922.22;5132697;27;20499;-58
2022/07/10 11:48:08;;;;;;;0.40;0.20;;;;;;;24.92;100.00;94910.47;5132849;27;21088;-57
2022/07/10 11:50:38;;;;;;;0.40;0.30;;;;;;;24.93;88.70;94925.56;5132676;27;20497;-55